sensor_id;sensor_type;location;lat;lon;timestamp;P1;durP1;ratioP1;P2;durP2;ratioP2
17494;SDS011;8864;51.970;4.614;2024-03-23T00:55:03;3.83;;;0.95;;
17494;SDS011;8864;51.970;4.614;2024-03-23T00:57:29;3.75;;;0.88;;
17494;SDS011;8864;51.970;4.614;2024-03-23T00:59:56;3.38;;;1.05;;
17494;SDS011;8864;51.970;4.614;2024-03-23T01:02:22;3.42;;;1.08;;
17494;SDS011;8864;51.970;4.614;2024-03-23T01:04:49;5.55;;;1.05;;
17494;SDS011;8864;51.970;4.614;2024-03-23T01:07:15;3.58;;;1.00;;
17494;SDS011;8864;51.970;4.614;2024-03-23T01:09:43;3.42;;;1.17;;
17494;SDS011;8864;51.970;4.614;2024-03-23T01:12:09;3.85;;;1.10;;
17494;SDS011;8864;51.970;4.614;2024-03-23T01:14:36;2.75;;;0.90;;
17494;SDS011;8864;51.970;4.614;2024-03-23T01:17:02;2.75;;;0.98;;
17494;SDS011;8864;51.970;4.614;2024-03-23T01:19:29;7.22;;;1.10;;
17494;SDS011;8864;51.970;4.614;2024-03-23T01:21:55;6.15;;;1.20;;
17494;SDS011;8864;51.970;4.614;2024-03-23T01:24:22;3.65;;;0.95;;
17494;SDS011;8864;51.970;4.614;2024-03-23T01:26:49;2.20;;;1.00;;
17494;SDS011;8864;51.970;4.614;2024-03-23T01:29:16;2.83;;;1.10;;
17494;SDS011;8864;51.970;4.614;2024-03-23T01:31:42;3.92;;;0.85;;
17494;SDS011;8864;51.970;4.614;2024-03-23T01:34:09;3.80;;;1.10;;
17494;SDS011;8864;51.970;4.614;2024-03-23T01:36:35;2.75;;;0.85;;
17494;SDS011;8864;51.970;4.614;2024-03-23T01:39:01;4.80;;;1.20;;
17494;SDS011;8864;51.970;4.614;2024-03-23T01:41:27;3.72;;;0.90;;
17494;SDS011;8864;51.970;4.614;2024-03-23T01:43:56;3.80;;;1.05;;
17494;SDS011;8864;51.970;4.614;2024-03-23T01:46:22;3.38;;;0.98;;
17494;SDS011;8864;51.970;4.614;2024-03-23T01:48:48;3.25;;;1.08;;
17494;SDS011;8864;51.970;4.614;2024-03-23T01:51:15;4.85;;;0.90;;
17494;SDS011;8864;51.970;4.614;2024-03-23T01:53:42;4.68;;;0.98;;
17494;SDS011;8864;51.970;4.614;2024-03-23T01:56:08;4.50;;;1.20;;
17494;SDS011;8864;51.970;4.614;2024-03-23T01:58:35;3.88;;;1.05;;
17494;SDS011;8864;51.970;4.614;2024-03-23T02:01:03;4.97;;;0.93;;
17494;SDS011;8864;51.970;4.614;2024-03-23T02:03:30;2.55;;;0.80;;
17494;SDS011;8864;51.970;4.614;2024-03-23T02:05:56;4.05;;;1.38;;
17494;SDS011;8864;51.970;4.614;2024-03-23T02:08:23;4.05;;;1.08;;
17494;SDS011;8864;51.970;4.614;2024-03-23T02:10:50;3.83;;;1.42;;
17494;SDS011;8864;51.970;4.614;2024-03-23T02:13:17;2.10;;;0.80;;
17494;SDS011;8864;51.970;4.614;2024-03-23T02:15:44;2.70;;;0.80;;
17494;SDS011;8864;51.970;4.614;2024-03-23T02:18:12;2.58;;;0.98;;
17494;SDS011;8864;51.970;4.614;2024-03-23T02:20:38;2.35;;;0.80;;
17494;SDS011;8864;51.970;4.614;2024-03-23T02:23:11;3.28;;;0.82;;
17494;SDS011;8864;51.970;4.614;2024-03-23T02:25:38;4.25;;;1.05;;
17494;SDS011;8864;51.970;4.614;2024-03-23T02:28:05;3.53;;;0.93;;
17494;SDS011;8864;51.970;4.614;2024-03-23T02:30:32;5.38;;;1.30;;
17494;SDS011;8864;51.970;4.614;2024-03-23T02:32:58;3.42;;;1.02;;
17494;SDS011;8864;51.970;4.614;2024-03-23T02:35:25;5.45;;;1.05;;
17494;SDS011;8864;51.970;4.614;2024-03-23T02:37:51;2.83;;;1.08;;
17494;SDS011;8864;51.970;4.614;2024-03-23T02:40:19;3.75;;;0.98;;
17494;SDS011;8864;51.970;4.614;2024-03-23T02:42:45;2.25;;;0.90;;
17494;SDS011;8864;51.970;4.614;2024-03-23T02:45:12;2.00;;;0.90;;
17494;SDS011;8864;51.970;4.614;2024-03-23T02:47:38;2.90;;;1.15;;
17494;SDS011;8864;51.970;4.614;2024-03-23T02:50:06;3.72;;;0.88;;
17494;SDS011;8864;51.970;4.614;2024-03-23T02:52:32;5.13;;;1.00;;
17494;SDS011;8864;51.970;4.614;2024-03-23T02:54:59;2.50;;;0.80;;
17494;SDS011;8864;51.970;4.614;2024-03-23T02:57:28;2.95;;;1.20;;
17494;SDS011;8864;51.970;4.614;2024-03-23T02:59:55;2.78;;;1.00;;
17494;SDS011;8864;51.970;4.614;2024-03-23T03:02:21;4.20;;;1.05;;
17494;SDS011;8864;51.970;4.614;2024-03-23T03:04:48;5.05;;;1.35;;
17494;SDS011;8864;51.970;4.614;2024-03-23T03:07:14;2.72;;;0.90;;
17494;SDS011;8864;51.970;4.614;2024-03-23T03:09:41;3.60;;;0.90;;
17494;SDS011;8864;51.970;4.614;2024-03-23T03:12:07;2.83;;;0.90;;
17494;SDS011;8864;51.970;4.614;2024-03-23T03:14:35;3.40;;;1.00;;
17494;SDS011;8864;51.970;4.614;2024-03-23T03:17:01;2.92;;;0.90;;
17494;SDS011;8864;51.970;4.614;2024-03-23T03:19:27;2.92;;;0.70;;
17494;SDS011;8864;51.970;4.614;2024-03-23T03:21:53;3.33;;;0.80;;
17494;SDS011;8864;51.970;4.614;2024-03-23T03:24:20;2.63;;;0.70;;
17494;SDS011;8864;51.970;4.614;2024-03-23T03:26:46;3.67;;;1.02;;
17494;SDS011;8864;51.970;4.614;2024-03-23T03:29:14;3.90;;;1.02;;
17494;SDS011;8864;51.970;4.614;2024-03-23T03:31:42;4.53;;;1.02;;
17494;SDS011;8864;51.970;4.614;2024-03-23T03:34:09;4.78;;;0.85;;
17494;SDS011;8864;51.970;4.614;2024-03-23T03:36:35;2.15;;;0.85;;
17494;SDS011;8864;51.970;4.614;2024-03-23T03:39:02;3.45;;;0.90;;
17494;SDS011;8864;51.970;4.614;2024-03-23T03:41:28;3.63;;;0.90;;
17494;SDS011;8864;51.970;4.614;2024-03-23T03:43:55;3.92;;;1.05;;
17494;SDS011;8864;51.970;4.614;2024-03-23T03:46:21;2.72;;;0.70;;
17494;SDS011;8864;51.970;4.614;2024-03-23T03:48:49;2.60;;;0.70;;
17494;SDS011;8864;51.970;4.614;2024-03-23T03:51:15;3.90;;;1.02;;
17494;SDS011;8864;51.970;4.614;2024-03-23T03:53:43;5.35;;;1.00;;
17494;SDS011;8864;51.970;4.614;2024-03-23T03:56:09;3.10;;;0.73;;
17494;SDS011;8864;51.970;4.614;2024-03-23T03:58:35;3.60;;;1.00;;
17494;SDS011;8864;51.970;4.614;2024-03-23T04:01:01;4.20;;;0.80;;
17494;SDS011;8864;51.970;4.614;2024-03-23T04:03:29;4.75;;;0.95;;
17494;SDS011;8864;51.970;4.614;2024-03-23T04:05:56;3.80;;;0.80;;
17494;SDS011;8864;51.970;4.614;2024-03-23T04:08:23;2.05;;;0.77;;
17494;SDS011;8864;51.970;4.614;2024-03-23T04:10:49;2.17;;;0.88;;
17494;SDS011;8864;51.970;4.614;2024-03-23T04:13:16;1.65;;;0.60;;
17494;SDS011;8864;51.970;4.614;2024-03-23T04:15:42;2.90;;;0.80;;
17494;SDS011;8864;51.970;4.614;2024-03-23T04:18:09;3.70;;;0.90;;
17494;SDS011;8864;51.970;4.614;2024-03-23T04:20:35;1.75;;;0.80;;
17494;SDS011;8864;51.970;4.614;2024-03-23T04:23:04;3.78;;;0.68;;
17494;SDS011;8864;51.970;4.614;2024-03-23T04:25:30;4.88;;;0.85;;
17494;SDS011;8864;51.970;4.614;2024-03-23T04:27:58;0.93;;;0.60;;
17494;SDS011;8864;51.970;4.614;2024-03-23T04:30:23;2.88;;;1.02;;
17494;SDS011;8864;51.970;4.614;2024-03-23T04:32:53;3.15;;;0.90;;
17494;SDS011;8864;51.970;4.614;2024-03-23T04:35:19;1.13;;;0.47;;
17494;SDS011;8864;51.970;4.614;2024-03-23T04:37:47;3.47;;;0.93;;
17494;SDS011;8864;51.970;4.614;2024-03-23T04:40:15;2.92;;;0.80;;
17494;SDS011;8864;51.970;4.614;2024-03-23T04:42:42;3.22;;;0.90;;
17494;SDS011;8864;51.970;4.614;2024-03-23T04:45:09;4.97;;;0.80;;
17494;SDS011;8864;51.970;4.614;2024-03-23T04:47:37;2.55;;;0.75;;
17494;SDS011;8864;51.970;4.614;2024-03-23T04:50:03;4.03;;;0.90;;
17494;SDS011;8864;51.970;4.614;2024-03-23T04:52:31;3.30;;;0.88;;
17494;SDS011;8864;51.970;4.614;2024-03-23T04:54:58;2.70;;;0.80;;
17494;SDS011;8864;51.970;4.614;2024-03-23T04:57:26;3.25;;;0.77;;
17494;SDS011;8864;51.970;4.614;2024-03-23T04:59:52;3.47;;;0.80;;
17494;SDS011;8864;51.970;4.614;2024-03-23T05:02:18;1.23;;;0.50;;
17494;SDS011;8864;51.970;4.614;2024-03-23T05:04:46;2.65;;;0.60;;
17494;SDS011;8864;51.970;4.614;2024-03-23T05:07:12;3.88;;;0.90;;
17494;SDS011;8864;51.970;4.614;2024-03-23T05:09:38;3.40;;;0.70;;
17494;SDS011;8864;51.970;4.614;2024-03-23T05:12:05;2.05;;;0.77;;
17494;SDS011;8864;51.970;4.614;2024-03-23T05:14:33;2.35;;;0.77;;
17494;SDS011;8864;51.970;4.614;2024-03-23T05:16:59;2.22;;;0.73;;
17494;SDS011;8864;51.970;4.614;2024-03-23T05:19:26;5.22;;;0.90;;
17494;SDS011;8864;51.970;4.614;2024-03-23T05:21:52;4.13;;;1.08;;
17494;SDS011;8864;51.970;4.614;2024-03-23T05:24:20;2.28;;;0.70;;
17494;SDS011;8864;51.970;4.614;2024-03-23T05:26:47;4.38;;;0.90;;
17494;SDS011;8864;51.970;4.614;2024-03-23T05:29:14;2.17;;;0.68;;
17494;SDS011;8864;51.970;4.614;2024-03-23T05:31:43;1.50;;;0.65;;
17494;SDS011;8864;51.970;4.614;2024-03-23T05:34:10;3.42;;;0.70;;
17494;SDS011;8864;51.970;4.614;2024-03-23T05:36:36;3.97;;;0.82;;
17494;SDS011;8864;51.970;4.614;2024-03-23T05:39:03;5.38;;;0.90;;
17494;SDS011;8864;51.970;4.614;2024-03-23T05:41:29;5.95;;;0.77;;
17494;SDS011;8864;51.970;4.614;2024-03-23T05:43:56;2.13;;;0.80;;
17494;SDS011;8864;51.970;4.614;2024-03-23T05:46:22;2.53;;;0.93;;
17494;SDS011;8864;51.970;4.614;2024-03-23T05:48:51;2.22;;;0.85;;
17494;SDS011;8864;51.970;4.614;2024-03-23T05:51:16;6.32;;;0.93;;
17494;SDS011;8864;51.970;4.614;2024-03-23T05:53:44;2.67;;;0.70;;
17494;SDS011;8864;51.970;4.614;2024-03-23T05:56:10;1.40;;;0.63;;
17494;SDS011;8864;51.970;4.614;2024-03-23T05:58:37;5.10;;;1.00;;
17494;SDS011;8864;51.970;4.614;2024-03-23T06:01:03;2.58;;;0.70;;
17494;SDS011;8864;51.970;4.614;2024-03-23T06:03:30;1.73;;;0.85;;
17494;SDS011;8864;51.970;4.614;2024-03-23T06:05:57;4.53;;;0.75;;
17494;SDS011;8864;51.970;4.614;2024-03-23T06:08:25;1.52;;;0.60;;
17494;SDS011;8864;51.970;4.614;2024-03-23T06:10:51;2.65;;;0.77;;
17494;SDS011;8864;51.970;4.614;2024-03-23T06:13:18;3.08;;;1.02;;
17494;SDS011;8864;51.970;4.614;2024-03-23T06:15:43;4.28;;;1.02;;
17494;SDS011;8864;51.970;4.614;2024-03-23T06:18:11;2.90;;;0.77;;
17494;SDS011;8864;51.970;4.614;2024-03-23T06:20:37;5.63;;;0.80;;
17494;SDS011;8864;51.970;4.614;2024-03-23T06:23:05;3.35;;;1.00;;
17494;SDS011;8864;51.970;4.614;2024-03-23T06:25:31;1.83;;;0.80;;
17494;SDS011;8864;51.970;4.614;2024-03-23T06:27:58;4.20;;;0.90;;
17494;SDS011;8864;51.970;4.614;2024-03-23T06:30:26;2.75;;;0.80;;
17494;SDS011;8864;51.970;4.614;2024-03-23T06:32:54;7.88;;;1.20;;
17494;SDS011;8864;51.970;4.614;2024-03-23T06:35:20;2.33;;;1.05;;
17494;SDS011;8864;51.970;4.614;2024-03-23T06:37:47;3.22;;;0.77;;
17494;SDS011;8864;51.970;4.614;2024-03-23T06:40:14;4.90;;;0.93;;
17494;SDS011;8864;51.970;4.614;2024-03-23T06:42:41;3.78;;;1.00;;
17494;SDS011;8864;51.970;4.614;2024-03-23T06:45:08;4.45;;;1.02;;
17494;SDS011;8864;51.970;4.614;2024-03-23T06:47:35;4.65;;;1.20;;
17494;SDS011;8864;51.970;4.614;2024-03-23T06:50:02;7.40;;;1.10;;
17494;SDS011;8864;51.970;4.614;2024-03-23T06:52:29;3.60;;;1.10;;
17494;SDS011;8864;51.970;4.614;2024-03-23T06:54:56;7.00;;;1.10;;
17494;SDS011;8864;51.970;4.614;2024-03-23T06:57:25;3.88;;;0.93;;
17494;SDS011;8864;51.970;4.614;2024-03-23T06:59:51;4.55;;;1.00;;
17494;SDS011;8864;51.970;4.614;2024-03-23T07:02:17;4.28;;;1.10;;
17494;SDS011;8864;51.970;4.614;2024-03-23T07:04:43;2.90;;;0.93;;
17494;SDS011;8864;51.970;4.614;2024-03-23T07:07:10;5.90;;;0.80;;
17494;SDS011;8864;51.970;4.614;2024-03-23T07:09:36;3.40;;;1.13;;
17494;SDS011;8864;51.970;4.614;2024-03-23T07:12:04;3.20;;;1.00;;
17494;SDS011;8864;51.970;4.614;2024-03-23T07:14:31;5.80;;;1.83;;
17494;SDS011;8864;51.970;4.614;2024-03-23T07:16:58;10.13;;;1.20;;
17494;SDS011;8864;51.970;4.614;2024-03-23T07:19:24;7.55;;;1.48;;
17494;SDS011;8864;51.970;4.614;2024-03-23T07:21:51;7.78;;;1.20;;
17494;SDS011;8864;51.970;4.614;2024-03-23T07:24:17;7.45;;;1.15;;
17494;SDS011;8864;51.970;4.614;2024-03-23T07:26:44;7.75;;;1.30;;
17494;SDS011;8864;51.970;4.614;2024-03-23T07:29:10;4.97;;;1.40;;
17494;SDS011;8864;51.970;4.614;2024-03-23T07:31:38;5.07;;;1.27;;
17494;SDS011;8864;51.970;4.614;2024-03-23T07:34:04;5.93;;;1.25;;
17494;SDS011;8864;51.970;4.614;2024-03-23T07:36:32;10.25;;;1.50;;
17494;SDS011;8864;51.970;4.614;2024-03-23T07:38:58;8.35;;;1.38;;
17494;SDS011;8864;51.970;4.614;2024-03-23T07:41:24;13.63;;;1.38;;
17494;SDS011;8864;51.970;4.614;2024-03-23T07:43:53;3.88;;;1.20;;
17494;SDS011;8864;51.970;4.614;2024-03-23T07:46:20;6.85;;;1.00;;
17494;SDS011;8864;51.970;4.614;2024-03-23T07:48:47;8.75;;;1.30;;
17494;SDS011;8864;51.970;4.614;2024-03-23T07:51:16;4.68;;;1.27;;
17494;SDS011;8864;51.970;4.614;2024-03-23T07:53:43;4.55;;;1.00;;
17494;SDS011;8864;51.970;4.614;2024-03-23T07:56:11;3.70;;;0.95;;
17494;SDS011;8864;51.970;4.614;2024-03-23T07:58:37;5.22;;;1.10;;
17494;SDS011;8864;51.970;4.614;2024-03-23T08:01:04;5.40;;;1.13;;
17494;SDS011;8864;51.970;4.614;2024-03-23T08:03:33;4.68;;;1.10;;
17494;SDS011;8864;51.970;4.614;2024-03-23T08:06:07;4.28;;;1.05;;
17494;SDS011;8864;51.970;4.614;2024-03-23T08:08:34;6.97;;;1.48;;
17494;SDS011;8864;51.970;4.614;2024-03-23T08:11:01;3.00;;;0.93;;
17494;SDS011;8864;51.970;4.614;2024-03-23T08:13:28;3.22;;;0.80;;
17494;SDS011;8864;51.970;4.614;2024-03-23T08:15:56;3.97;;;1.10;;
17494;SDS011;8864;51.970;4.614;2024-03-23T08:18:22;5.75;;;1.00;;
17494;SDS011;8864;51.970;4.614;2024-03-23T08:20:58;5.15;;;1.05;;
17494;SDS011;8864;51.970;4.614;2024-03-23T08:23:28;3.65;;;1.30;;
17494;SDS011;8864;51.970;4.614;2024-03-23T08:25:57;3.97;;;1.25;;
17494;SDS011;8864;51.970;4.614;2024-03-23T08:28:23;3.63;;;1.17;;
17494;SDS011;8864;51.970;4.614;2024-03-23T08:30:50;5.03;;;1.00;;
17494;SDS011;8864;51.970;4.614;2024-03-23T08:33:16;6.35;;;1.00;;
17494;SDS011;8864;51.970;4.614;2024-03-23T08:35:52;4.90;;;1.13;;
17494;SDS011;8864;51.970;4.614;2024-03-23T08:38:20;3.45;;;1.00;;
17494;SDS011;8864;51.970;4.614;2024-03-23T08:40:48;13.57;;;2.17;;
17494;SDS011;8864;51.970;4.614;2024-03-23T08:43:23;23.83;;;3.72;;
17494;SDS011;8864;51.970;4.614;2024-03-23T08:45:49;27.25;;;2.83;;
17494;SDS011;8864;51.970;4.614;2024-03-23T08:48:17;12.00;;;2.42;;
17494;SDS011;8864;51.970;4.614;2024-03-23T08:50:45;15.35;;;2.28;;
17494;SDS011;8864;51.970;4.614;2024-03-23T08:53:12;14.45;;;2.10;;
17494;SDS011;8864;51.970;4.614;2024-03-23T08:55:38;10.00;;;2.10;;
17494;SDS011;8864;51.970;4.614;2024-03-23T08:58:07;13.77;;;2.42;;
17494;SDS011;8864;51.970;4.614;2024-03-23T09:00:34;8.85;;;1.90;;
17494;SDS011;8864;51.970;4.614;2024-03-23T09:03:00;8.52;;;2.13;;
17494;SDS011;8864;51.970;4.614;2024-03-23T09:05:27;6.35;;;1.60;;
17494;SDS011;8864;51.970;4.614;2024-03-23T09:08:00;7.85;;;1.77;;
17494;SDS011;8864;51.970;4.614;2024-03-23T09:10:26;10.77;;;1.75;;
17494;SDS011;8864;51.970;4.614;2024-03-23T09:12:53;8.45;;;1.40;;
17494;SDS011;8864;51.970;4.614;2024-03-23T09:15:21;10.35;;;2.28;;
17494;SDS011;8864;51.970;4.614;2024-03-23T09:17:48;7.88;;;1.75;;
17494;SDS011;8864;51.970;4.614;2024-03-23T09:20:13;7.13;;;1.75;;
17494;SDS011;8864;51.970;4.614;2024-03-23T09:22:40;8.13;;;1.60;;
17494;SDS011;8864;51.970;4.614;2024-03-23T09:25:06;7.45;;;1.70;;
17494;SDS011;8864;51.970;4.614;2024-03-23T09:27:34;6.88;;;1.63;;
17494;SDS011;8864;51.970;4.614;2024-03-23T09:30:00;7.50;;;1.52;;
17494;SDS011;8864;51.970;4.614;2024-03-23T09:32:28;7.90;;;1.63;;
17494;SDS011;8864;51.970;4.614;2024-03-23T09:34:54;8.05;;;1.40;;
17494;SDS011;8864;51.970;4.614;2024-03-23T09:37:21;5.88;;;1.83;;
17494;SDS011;8864;51.970;4.614;2024-03-23T09:39:47;7.35;;;1.80;;
17494;SDS011;8864;51.970;4.614;2024-03-23T09:42:14;5.43;;;1.40;;
17494;SDS011;8864;51.970;4.614;2024-03-23T09:44:40;7.00;;;1.70;;
17494;SDS011;8864;51.970;4.614;2024-03-23T09:47:07;6.53;;;1.33;;
17494;SDS011;8864;51.970;4.614;2024-03-23T09:49:35;6.03;;;1.40;;
17494;SDS011;8864;51.970;4.614;2024-03-23T09:52:02;6.40;;;1.70;;
17494;SDS011;8864;51.970;4.614;2024-03-23T09:54:28;11.07;;;1.58;;
17494;SDS011;8864;51.970;4.614;2024-03-23T09:56:57;5.35;;;1.17;;
17494;SDS011;8864;51.970;4.614;2024-03-23T09:59:24;6.97;;;1.80;;
17494;SDS011;8864;51.970;4.614;2024-03-23T10:01:51;4.78;;;1.20;;
17494;SDS011;8864;51.970;4.614;2024-03-23T10:07:10;4.93;;;1.48;;
17494;SDS011;8864;51.970;4.614;2024-03-23T10:09:37;3.05;;;1.00;;
17494;SDS011;8864;51.970;4.614;2024-03-23T10:12:07;6.63;;;1.40;;
17494;SDS011;8864;51.970;4.614;2024-03-23T10:14:34;5.22;;;1.40;;
17494;SDS011;8864;51.970;4.614;2024-03-23T10:17:11;5.15;;;0.98;;
17494;SDS011;8864;51.970;4.614;2024-03-23T10:19:40;6.07;;;1.85;;
17494;SDS011;8864;51.970;4.614;2024-03-23T10:22:08;3.70;;;1.08;;
17494;SDS011;8864;51.970;4.614;2024-03-23T10:24:35;3.53;;;1.42;;
17494;SDS011;8864;51.970;4.614;2024-03-23T10:27:02;4.38;;;1.13;;
17494;SDS011;8864;51.970;4.614;2024-03-23T10:29:28;6.32;;;1.42;;
17494;SDS011;8864;51.970;4.614;2024-03-23T10:31:58;6.90;;;1.70;;
17494;SDS011;8864;51.970;4.614;2024-03-23T10:34:33;5.65;;;1.13;;
17494;SDS011;8864;51.970;4.614;2024-03-23T10:37:02;5.88;;;1.50;;
17494;SDS011;8864;51.970;4.614;2024-03-23T10:39:30;7.15;;;1.73;;
17494;SDS011;8864;51.970;4.614;2024-03-23T10:42:00;6.85;;;1.15;;
17494;SDS011;8864;51.970;4.614;2024-03-23T10:44:30;6.25;;;1.20;;
17494;SDS011;8864;51.970;4.614;2024-03-23T10:46:58;4.55;;;1.30;;
17494;SDS011;8864;51.970;4.614;2024-03-23T10:49:28;2.88;;;0.95;;
17494;SDS011;8864;51.970;4.614;2024-03-23T10:51:57;7.50;;;1.40;;
17494;SDS011;8864;51.970;4.614;2024-03-23T10:54:25;4.65;;;1.40;;
17494;SDS011;8864;51.970;4.614;2024-03-23T10:56:53;6.43;;;1.45;;
17494;SDS011;8864;51.970;4.614;2024-03-23T10:59:23;3.33;;;1.15;;
17494;SDS011;8864;51.970;4.614;2024-03-23T11:01:53;7.03;;;1.30;;
17494;SDS011;8864;51.970;4.614;2024-03-23T11:04:29;4.15;;;1.23;;
17494;SDS011;8864;51.970;4.614;2024-03-23T11:06:57;4.80;;;1.10;;
17494;SDS011;8864;51.970;4.614;2024-03-23T11:09:40;11.23;;;1.60;;
17494;SDS011;8864;51.970;4.614;2024-03-23T11:12:29;5.25;;;1.20;;
17494;SDS011;8864;51.970;4.614;2024-03-23T11:14:58;6.35;;;1.40;;
17494;SDS011;8864;51.970;4.614;2024-03-23T11:17:27;4.22;;;1.27;;
17494;SDS011;8864;51.970;4.614;2024-03-23T11:19:54;5.63;;;1.20;;
17494;SDS011;8864;51.970;4.614;2024-03-23T11:22:38;4.93;;;1.40;;
17494;SDS011;8864;51.970;4.614;2024-03-23T11:25:13;7.28;;;1.40;;
17494;SDS011;8864;51.970;4.614;2024-03-23T11:27:41;7.18;;;1.70;;
17494;SDS011;8864;51.970;4.614;2024-03-23T11:30:14;7.70;;;1.30;;
17494;SDS011;8864;51.970;4.614;2024-03-23T11:32:43;5.82;;;1.17;;
17494;SDS011;8864;51.970;4.614;2024-03-23T11:35:10;4.55;;;1.10;;
17494;SDS011;8864;51.970;4.614;2024-03-23T11:38:01;6.93;;;1.17;;
17494;SDS011;8864;51.970;4.614;2024-03-23T11:40:32;5.05;;;1.48;;
17494;SDS011;8864;51.970;4.614;2024-03-23T11:43:00;8.55;;;1.50;;
17494;SDS011;8864;51.970;4.614;2024-03-23T11:45:26;6.20;;;1.40;;
17494;SDS011;8864;51.970;4.614;2024-03-23T11:48:06;5.28;;;1.45;;
17494;SDS011;8864;51.970;4.614;2024-03-23T11:50:34;5.47;;;1.40;;
17494;SDS011;8864;51.970;4.614;2024-03-23T11:53:13;8.82;;;1.60;;
17494;SDS011;8864;51.970;4.614;2024-03-23T11:55:45;6.15;;;1.10;;
17494;SDS011;8864;51.970;4.614;2024-03-23T11:58:13;3.78;;;1.00;;
17494;SDS011;8864;51.970;4.614;2024-03-23T12:00:40;7.72;;;1.30;;
17494;SDS011;8864;51.970;4.614;2024-03-23T12:03:07;6.60;;;1.60;;
17494;SDS011;8864;51.970;4.614;2024-03-23T12:05:33;7.10;;;1.60;;
17494;SDS011;8864;51.970;4.614;2024-03-23T12:08:16;8.25;;;1.35;;
17494;SDS011;8864;51.970;4.614;2024-03-23T12:10:50;7.28;;;1.55;;
17494;SDS011;8864;51.970;4.614;2024-03-23T12:13:18;5.47;;;1.38;;
17494;SDS011;8864;51.970;4.614;2024-03-23T12:15:46;7.63;;;1.50;;
17494;SDS011;8864;51.970;4.614;2024-03-23T12:18:14;5.30;;;1.02;;
17494;SDS011;8864;51.970;4.614;2024-03-23T12:20:41;8.60;;;1.60;;
17494;SDS011;8864;51.970;4.614;2024-03-23T12:23:07;5.13;;;1.20;;
17494;SDS011;8864;51.970;4.614;2024-03-23T12:25:36;9.23;;;1.73;;
17494;SDS011;8864;51.970;4.614;2024-03-23T12:28:04;4.63;;;1.35;;
17494;SDS011;8864;51.970;4.614;2024-03-23T12:30:35;6.47;;;1.52;;
17494;SDS011;8864;51.970;4.614;2024-03-23T12:33:01;8.93;;;1.10;;
17494;SDS011;8864;51.970;4.614;2024-03-23T12:35:29;4.35;;;1.40;;
17494;SDS011;8864;51.970;4.614;2024-03-23T12:37:56;7.72;;;1.23;;
17494;SDS011;8864;51.970;4.614;2024-03-23T12:40:23;6.55;;;1.60;;
17494;SDS011;8864;51.970;4.614;2024-03-23T12:42:49;5.97;;;1.40;;
17494;SDS011;8864;51.970;4.614;2024-03-23T12:45:18;6.00;;;1.20;;
17494;SDS011;8864;51.970;4.614;2024-03-23T12:47:44;5.90;;;1.40;;
17494;SDS011;8864;51.970;4.614;2024-03-23T12:50:11;4.10;;;1.02;;
17494;SDS011;8864;51.970;4.614;2024-03-23T12:52:37;3.47;;;1.38;;
17494;SDS011;8864;51.970;4.614;2024-03-23T12:55:04;5.15;;;1.50;;
17494;SDS011;8864;51.970;4.614;2024-03-23T12:57:30;5.55;;;1.30;;
17494;SDS011;8864;51.970;4.614;2024-03-23T12:59:57;6.20;;;1.55;;
17494;SDS011;8864;51.970;4.614;2024-03-23T13:02:25;4.10;;;1.45;;
17494;SDS011;8864;51.970;4.614;2024-03-23T13:04:52;5.72;;;1.50;;
17494;SDS011;8864;51.970;4.614;2024-03-23T13:07:18;7.20;;;1.67;;
17494;SDS011;8864;51.970;4.614;2024-03-23T13:09:46;4.38;;;1.45;;
17494;SDS011;8864;51.970;4.614;2024-03-23T13:12:14;8.38;;;1.67;;
17494;SDS011;8864;51.970;4.614;2024-03-23T13:14:43;5.60;;;1.25;;
17494;SDS011;8864;51.970;4.614;2024-03-23T13:17:09;4.78;;;1.30;;
17494;SDS011;8864;51.970;4.614;2024-03-23T13:19:37;9.57;;;1.48;;
17494;SDS011;8864;51.970;4.614;2024-03-23T13:22:03;9.10;;;1.60;;
17494;SDS011;8864;51.970;4.614;2024-03-23T13:24:30;6.38;;;1.88;;
17494;SDS011;8864;51.970;4.614;2024-03-23T13:26:57;7.07;;;1.40;;
17494;SDS011;8864;51.970;4.614;2024-03-23T13:29:24;9.88;;;2.00;;
17494;SDS011;8864;51.970;4.614;2024-03-23T13:31:51;6.32;;;1.40;;
17494;SDS011;8864;51.970;4.614;2024-03-23T13:34:18;5.43;;;1.73;;
17494;SDS011;8864;51.970;4.614;2024-03-23T13:36:46;6.38;;;1.65;;
17494;SDS011;8864;51.970;4.614;2024-03-23T13:39:14;11.75;;;1.50;;
17494;SDS011;8864;51.970;4.614;2024-03-23T13:41:41;5.55;;;1.20;;
17494;SDS011;8864;51.970;4.614;2024-03-23T13:44:08;6.32;;;1.40;;
17494;SDS011;8864;51.970;4.614;2024-03-23T13:46:35;6.78;;;1.48;;
17494;SDS011;8864;51.970;4.614;2024-03-23T13:49:03;7.63;;;1.45;;
17494;SDS011;8864;51.970;4.614;2024-03-23T13:51:28;6.30;;;1.27;;
17494;SDS011;8864;51.970;4.614;2024-03-23T13:53:57;5.90;;;1.58;;
17494;SDS011;8864;51.970;4.614;2024-03-23T13:56:25;7.22;;;1.60;;
17494;SDS011;8864;51.970;4.614;2024-03-23T13:58:53;8.40;;;1.35;;
17494;SDS011;8864;51.970;4.614;2024-03-23T14:01:20;5.68;;;1.42;;
17494;SDS011;8864;51.970;4.614;2024-03-23T14:03:47;7.60;;;1.23;;
17494;SDS011;8864;51.970;4.614;2024-03-23T14:06:13;7.25;;;1.30;;
17494;SDS011;8864;51.970;4.614;2024-03-23T14:08:40;8.07;;;1.20;;
17494;SDS011;8864;51.970;4.614;2024-03-23T14:11:08;3.78;;;1.00;;
17494;SDS011;8864;51.970;4.614;2024-03-23T14:13:36;6.85;;;1.55;;
17494;SDS011;8864;51.970;4.614;2024-03-23T14:16:03;3.40;;;1.13;;
17494;SDS011;8864;51.970;4.614;2024-03-23T14:18:30;9.02;;;1.90;;
17494;SDS011;8864;51.970;4.614;2024-03-23T14:20:56;4.07;;;1.20;;
17494;SDS011;8864;51.970;4.614;2024-03-23T14:23:24;6.85;;;1.88;;
17494;SDS011;8864;51.970;4.614;2024-03-23T14:25:52;3.08;;;1.42;;
17494;SDS011;8864;51.970;4.614;2024-03-23T14:28:21;4.53;;;1.58;;
17494;SDS011;8864;51.970;4.614;2024-03-23T14:30:47;7.40;;;1.70;;
17494;SDS011;8864;51.970;4.614;2024-03-23T14:33:14;5.63;;;1.73;;
17494;SDS011;8864;51.970;4.614;2024-03-23T14:35:40;5.30;;;1.50;;
17494;SDS011;8864;51.970;4.614;2024-03-23T14:38:07;5.28;;;1.70;;
17494;SDS011;8864;51.970;4.614;2024-03-23T14:40:33;6.22;;;1.45;;
17494;SDS011;8864;51.970;4.614;2024-03-23T14:43:00;3.97;;;1.30;;
17494;SDS011;8864;51.970;4.614;2024-03-23T14:45:29;4.57;;;1.48;;
17494;SDS011;8864;51.970;4.614;2024-03-23T14:47:55;6.10;;;1.23;;
17494;SDS011;8864;51.970;4.614;2024-03-23T14:50:23;4.40;;;1.13;;
17494;SDS011;8864;51.970;4.614;2024-03-23T14:52:50;5.47;;;1.45;;
17494;SDS011;8864;51.970;4.614;2024-03-23T14:55:16;4.63;;;1.13;;
17494;SDS011;8864;51.970;4.614;2024-03-23T14:57:44;4.20;;;1.17;;
17494;SDS011;8864;51.970;4.614;2024-03-23T15:00:10;5.25;;;1.33;;
17494;SDS011;8864;51.970;4.614;2024-03-23T15:02:39;3.55;;;0.80;;
17494;SDS011;8864;51.970;4.614;2024-03-23T15:05:05;5.90;;;1.10;;
17494;SDS011;8864;51.970;4.614;2024-03-23T15:07:34;10.00;;;1.35;;
17494;SDS011;8864;51.970;4.614;2024-03-23T15:10:00;6.00;;;1.20;;
17494;SDS011;8864;51.970;4.614;2024-03-23T15:12:29;3.42;;;1.00;;
17494;SDS011;8864;51.970;4.614;2024-03-23T15:14:58;4.57;;;1.02;;
17494;SDS011;8864;51.970;4.614;2024-03-23T15:17:25;5.63;;;1.40;;
17494;SDS011;8864;51.970;4.614;2024-03-23T15:19:52;2.78;;;0.93;;
17494;SDS011;8864;51.970;4.614;2024-03-23T15:22:20;4.82;;;1.13;;
17494;SDS011;8864;51.970;4.614;2024-03-23T15:24:47;3.10;;;1.00;;
17494;SDS011;8864;51.970;4.614;2024-03-23T15:27:13;2.95;;;0.90;;
17494;SDS011;8864;51.970;4.614;2024-03-23T15:29:40;5.25;;;1.02;;
17494;SDS011;8864;51.970;4.614;2024-03-23T15:32:10;4.95;;;1.15;;
17494;SDS011;8864;51.970;4.614;2024-03-23T15:34:36;2.85;;;1.20;;
17494;SDS011;8864;51.970;4.614;2024-03-23T15:37:04;1.95;;;1.00;;
17494;SDS011;8864;51.970;4.614;2024-03-23T15:39:30;4.63;;;1.00;;
17494;SDS011;8864;51.970;4.614;2024-03-23T15:41:57;8.50;;;1.10;;
17494;SDS011;8864;51.970;4.614;2024-03-23T15:44:24;4.90;;;1.15;;
17494;SDS011;8864;51.970;4.614;2024-03-23T15:46:51;5.05;;;1.27;;
17494;SDS011;8864;51.970;4.614;2024-03-23T15:49:16;9.32;;;2.10;;
17494;SDS011;8864;51.970;4.614;2024-03-23T15:51:43;6.20;;;1.10;;
17494;SDS011;8864;51.970;4.614;2024-03-23T15:54:10;10.25;;;1.10;;
17494;SDS011;8864;51.970;4.614;2024-03-23T15:56:37;2.88;;;1.00;;
17494;SDS011;8864;51.970;4.614;2024-03-23T15:59:03;5.43;;;1.48;;